Time;durP1;ratioP1;P1;durP2;ratioP2;P2;SDS_P1;SDS_P2;PMS_P1;PMS_P2;Temp;Humidity;BMP_temperature;BMP_pressure;BME280_temperature;BME280_humidity;BME280_pressure;Samples;Min_cycle;Max_cycle;Signal;HPM_P1;HPM_P2
2023/02/25 00:02:09;;;;;;;44.35;23.40;;;;;;;5.91;76.20;99393.70;123714;1102;104376;-82
2023/02/25 00:04:41;;;;;;;46.17;22.53;;;;;;;5.89;76.35;99400.55;123657;1102;104329;-82
2023/02/25 00:07:12;;;;;;;43.40;22.07;;;;;;;5.87;76.58;99402.22;123621;1102;104326;-82
2023/02/25 00:09:43;;;;;;;45.23;23.37;;;;;;;5.86;76.14;99397.83;123542;1102;104249;-81
2023/02/25 00:12:14;;;;;;;44.43;24.30;;;;;;;5.83;76.24;99400.31;123574;1102;104258;-82
2023/02/25 00:14:46;;;;;;;46.60;22.75;;;;;;;5.83;76.38;99392.50;123508;1102;104384;-81
2023/02/25 00:17:17;;;;;;;48.53;23.90;;;;;;;5.80;76.74;99381.98;123671;1102;107135;-83
2023/02/25 00:19:48;;;;;;;46.37;23.47;;;;;;;5.78;76.45;99375.84;123464;1102;104255;-82
2023/02/25 00:22:19;;;;;;;48.80;24.67;;;;;;;5.77;77.01;99377.56;123541;1102;104281;-82
2023/02/25 00:24:53;;;;;;;40.67;23.10;;;;;;;5.75;76.31;99387.92;123731;1102;104363;-83
2023/02/25 00:27:24;;;;;;;;;;;;;;;5.72;76.71;99374.80;123855;1102;118693;-83
2023/02/25 00:29:55;;;;;;;44.47;23.57;;;;;;;5.70;76.78;99366.05;123754;1102;104794;-82
2023/02/25 00:32:27;;;;;;;45.57;24.27;;;;;;;5.68;76.95;99370.30;124016;1102;104289;-83
2023/02/25 00:34:58;;;;;;;46.53;25.27;;;;;;;5.67;77.46;99358.13;123638;1102;104254;-82
2023/02/25 00:37:29;;;;;;;43.73;23.00;;;;;;;5.65;76.86;99359.77;123452;1105;104265;-82
2023/02/25 00:40:01;;;;;;;40.17;20.83;;;;;;;5.66;76.89;99360.68;123441;1102;104374;-82
2023/02/25 00:42:32;;;;;;;46.07;23.87;;;;;;;5.63;76.93;99361.44;123793;1102;104479;-82
2023/02/25 00:45:03;;;;;;;43.20;23.53;;;;;;;5.62;77.52;99363.98;123728;1102;104249;-81
2023/02/25 00:47:35;;;;;;;44.90;23.43;;;;;;;5.60;77.27;99353.52;123561;1102;104697;-82
2023/02/25 00:50:10;;;;;;;44.70;23.33;;;;;;;5.58;76.65;99347.38;123446;1101;104235;-82
2023/02/25 00:52:41;;;;;;;45.10;23.45;;;;;;;5.58;76.95;99353.45;123615;1105;104239;-83
2023/02/25 00:55:13;;;;;;;44.50;23.47;;;;;;;5.56;76.77;99355.13;123519;1102;104647;-82
2023/02/25 00:57:44;;;;;;;45.47;24.07;;;;;;;5.56;76.79;99352.53;123492;1102;104382;-82
2023/02/25 01:00:17;;;;;;;44.57;23.93;;;;;;;5.55;77.51;99344.66;123617;1102;104283;-83
2023/02/25 01:02:48;;;;;;;41.00;22.50;;;;;;;5.55;77.19;99349.86;123711;1105;104211;-83
2023/02/25 01:05:19;;;;;;;49.20;23.50;;;;;;;5.54;77.11;99346.36;123644;1102;104230;-82
2023/02/25 01:07:50;;;;;;;43.97;24.77;;;;;;;5.54;77.20;99346.36;123505;1102;104281;-82
2023/02/25 01:10:21;;;;;;;42.17;23.07;;;;;;;5.55;76.83;99339.45;123604;1102;104232;-82
2023/02/25 01:12:53;;;;;;;43.27;23.90;;;;;;;5.55;77.15;99339.45;123618;1105;104284;-83
2023/02/25 01:15:24;;;;;;;49.07;25.20;;;;;;;5.55;76.56;99334.25;123460;1106;104354;-82
2023/02/25 01:17:57;;;;;;;46.40;23.83;;;;;;;5.54;77.00;99324.66;123458;1102;104341;-82
2023/02/25 01:20:29;;;;;;;49.25;24.65;;;;;;;5.51;77.29;99325.42;123338;1102;104654;-82
2023/02/25 01:23:01;;;;;;;46.13;24.33;;;;;;;5.49;77.35;99318.41;123466;1102;104287;-82
2023/02/25 01:25:34;;;;;;;47.67;25.43;;;;;;;5.47;77.28;99312.24;123457;1102;104351;-83
2023/02/25 01:28:06;;;;;;;48.35;23.75;;;;;;;5.45;77.46;99313.91;123503;1102;104265;-82
2023/02/25 01:30:38;;;;;;;45.97;23.60;;;;;;;5.44;76.87;99315.64;123475;1102;104280;-82
2023/02/25 01:33:10;;;;;;;45.33;23.20;;;;;;;5.43;77.40;99305.17;123385;1102;104293;-82
2023/02/25 01:35:41;;;;;;;46.20;24.15;;;;;;;5.40;77.45;99300.73;123448;1102;104284;-82
2023/02/25 01:38:12;;;;;;;44.53;23.30;;;;;;;5.41;77.63;99299.91;123370;1102;105676;-81
2023/02/25 01:40:43;;;;;;;48.17;23.20;;;;;;;5.39;77.58;99301.55;123496;1103;104226;-82
2023/02/25 01:43:17;;;;;;;45.20;23.17;;;;;;;5.39;77.49;99306.75;123526;1102;104229;-81
2023/02/25 01:45:49;;;;;;;45.17;24.07;;;;;;;5.38;77.20;99299.80;123503;1102;104360;-82
2023/02/25 01:48:23;;;;;;;44.20;23.27;;;;;;;5.37;77.62;99306.70;123387;1105;104328;-82
2023/02/25 01:50:58;;;;;;;43.80;23.43;;;;;;;5.36;77.18;99310.15;123576;1102;104278;-82
2023/02/25 01:53:37;;;;;;;47.88;24.80;;;;;;;5.35;77.45;99299.69;123561;1105;104194;-81
2023/02/25 01:56:10;;;;;;;46.30;24.97;;;;;;;5.33;77.40;99294.42;123493;1102;104384;-81
2023/02/25 01:58:42;;;;;;;46.70;24.43;;;;;;;5.32;78.02;99284.84;123495;1102;104303;-83
2023/02/25 02:01:19;;;;;;;48.20;24.33;;;;;;;5.31;77.94;99290.86;123419;1105;104208;-82
2023/02/25 02:03:52;;;;;;;43.03;23.80;;;;;;;5.29;77.43;99281.25;123469;1102;104262;-82
2023/02/25 02:06:28;;;;;;;49.30;24.45;;;;;;;5.28;77.64;99279.47;123413;1102;104264;-82
2023/02/25 02:09:01;;;;;;;48.50;24.53;;;;;;;5.26;77.33;99269.00;123468;1102;104448;-82
2023/02/25 02:11:32;;;;;;;44.60;23.70;;;;;;;5.27;77.21;99264.71;123594;1102;104316;-82
2023/02/25 02:14:08;;;;;;;45.13;25.03;;;;;;;5.25;77.70;99262.05;123582;1105;104294;-81
2023/02/25 02:17:05;;;;;;;47.00;23.30;;;;;;;5.24;77.80;99267.20;123475;1102;104284;-82
2023/02/25 02:19:56;;;;;;;46.17;23.40;;;;;;;5.21;77.46;99266.23;123519;1105;104255;-82
2023/02/25 02:22:36;;;;;;;45.47;24.17;;;;;;;5.23;77.49;99261.09;123631;1102;104319;-81
2023/02/25 02:25:53;;;;;;;44.00;22.85;;;;;;;5.22;77.35;99259.34;123460;1102;104377;-82
2023/02/25 02:29:04;;;;;;;45.30;24.17;;;;;;;5.21;77.16;99283.56;123580;1105;104287;-83
2023/02/25 02:31:48;;;;;;;46.77;23.93;;;;;;;5.19;77.31;99290.44;123655;1102;104248;-83
2023/02/25 02:34:29;;;;;;;43.70;23.40;;;;;;;5.18;76.93;99293.84;123596;1105;102187;-82
2023/02/25 02:37:10;;;;;;;46.17;23.57;;;;;;;5.16;77.12;99292.91;123640;1102;104335;-81
2023/02/25 02:39:55;;;;;;;45.53;22.77;;;;;;;5.15;77.64;99288.53;123451;1102;104306;-82
2023/02/25 02:42:37;;;;;;;47.37;23.90;;;;;;;5.13;77.80;99279.80;123777;1105;104283;-83
2023/02/25 02:45:15;;;;;;;44.47;22.40;;;;;;;5.12;77.96;99278.89;123584;1102;104297;-83
2023/02/25 02:47:50;;;;;;;43.20;22.37;;;;;;;5.12;77.82;99278.02;123499;1105;104331;-82
2023/02/25 02:50:29;;;;;;;40.20;20.97;;;;;;;5.10;78.30;99275.36;123600;1102;119071;-82
2023/02/25 02:53:07;;;;;;;40.83;21.53;;;;;;;5.11;77.62;99271.03;123554;1102;104274;-82
2023/02/25 02:55:44;;;;;;;41.83;21.13;;;;;;;5.12;78.07;99268.48;123591;1103;104390;-82
2023/02/25 02:58:21;;;;;;;47.90;22.63;;;;;;;5.13;77.94;99264.20;123471;1102;104264;-81
2023/02/25 03:00:59;;;;;;;45.63;21.70;;;;;;;5.12;78.13;99265.02;123502;1105;104344;-82
2023/02/25 03:03:36;;;;;;;43.13;21.43;;;;;;;5.13;78.26;99261.59;123544;1105;104392;-83
2023/02/25 03:06:11;;;;;;;43.63;21.43;;;;;;;5.11;78.25;99255.42;123489;1102;104444;-82
2023/02/25 03:08:46;;;;;;;45.20;21.87;;;;;;;5.11;78.52;99261.54;123438;1102;104182;-83
2023/02/25 03:11:17;;;;;;;46.87;22.67;;;;;;;5.10;78.32;99249.35;123460;1102;104220;-81
2023/02/25 03:13:50;;;;;;;46.80;21.60;;;;;;;5.09;78.52;99255.37;123564;1105;104254;-83
2023/02/25 03:16:25;;;;;;;46.77;21.23;;;;;;;5.07;78.33;99253.56;123602;1102;104368;-81
2023/02/25 03:19:03;;;;;;;46.93;23.67;;;;;;;5.04;78.10;99247.39;123443;1106;104412;-81
2023/02/25 03:21:39;;;;;;;43.20;21.93;;;;;;;5.03;78.16;99242.14;123440;1105;104322;-84
2023/02/25 03:24:21;;;;;;;43.10;21.35;;;;;;;5.02;78.05;99241.27;123510;1102;104258;-82
2023/02/25 03:26:53;;;;;;;39.60;20.43;;;;;;;5.01;78.35;99238.61;123498;1105;104179;-83
2023/02/25 03:29:28;;;;;;;40.60;21.05;;;;;;;4.99;78.20;99237.67;123547;1103;104319;-82
2023/02/25 03:32:06;;;;;;;42.93;22.10;;;;;;;4.98;78.04;99235.89;123391;1105;104335;-82
2023/02/25 03:34:42;;;;;;;44.13;21.63;;;;;;;4.96;78.20;99240.16;123639;1105;104693;-82
2023/02/25 03:37:18;;;;;;;38.00;21.00;;;;;;;4.92;77.87;99233.93;123468;1102;104255;-82
2023/02/25 03:39:55;;;;;;;44.50;23.13;;;;;;;4.91;78.51;99229.58;123527;1102;104264;-82
2023/02/25 03:42:32;;;;;;;38.27;19.30;;;;;;;4.89;78.76;99236.41;123391;1105;104536;-81
2023/02/25 03:45:07;;;;;;;42.83;21.67;;;;;;;4.87;77.93;99230.28;123569;1105;104376;-82
2023/02/25 03:47:40;;;;;;;40.90;21.60;;;;;;;4.87;78.23;99238.08;123460;1105;104419;-82
2023/02/25 03:50:20;;;;;;;37.27;20.13;;;;;;;4.85;77.86;99237.14;123356;1105;104329;-82
2023/02/25 03:52:52;;;;;;;40.43;20.60;;;;;;;4.82;78.33;99231.83;123471;1105;104394;-81
2023/02/25 03:55:48;;;;;;;43.67;21.13;;;;;;;4.79;78.12;99227.39;123462;1105;104316;-82
2023/02/25 03:58:19;;;;;;;44.60;22.23;;;;;;;4.78;78.02;99220.41;123528;1102;104638;-82
2023/02/25 04:00:56;;;;;;;42.37;21.03;;;;;;;4.78;78.54;99212.61;123443;1103;104267;-82
2023/02/25 04:03:29;;;;;;;43.90;21.87;;;;;;;4.78;78.44;99206.54;123516;1102;104309;-82
2023/02/25 04:06:01;;;;;;;40.53;20.23;;;;;;;4.80;78.18;99204.88;123487;1102;104287;-82
2023/02/25 04:08:32;;;;;;;41.60;20.53;;;;;;;4.79;78.35;99200.52;123520;1102;104297;-82
2023/02/25 04:11:03;;;;;;;39.75;20.55;;;;;;;4.81;78.38;99204.05;123506;1102;104281;-82
2023/02/25 04:13:35;;;;;;;38.13;20.57;;;;;;;4.82;78.31;99198.04;123643;1102;104175;-82
2023/02/25 04:16:08;;;;;;;42.95;21.95;;;;;;;4.83;78.47;99185.10;123596;1102;104306;-81
2023/02/25 04:18:40;;;;;;;37.78;20.88;;;;;;;4.83;78.20;99189.39;123679;1102;104211;-82
2023/02/25 04:21:24;;;;;;;43.07;21.50;;;;;;;4.83;77.74;99190.30;123545;1105;104313;-82
2023/02/25 04:23:57;;;;;;;44.57;21.23;;;;;;;4.82;78.23;99183.32;123698;1102;104382;-82
2023/02/25 04:26:31;;;;;;;38.87;20.13;;;;;;;4.83;78.38;99184.20;123533;1102;104339;-82
2023/02/25 04:29:02;;;;;;;42.25;20.43;;;;;;;4.81;78.27;99178.94;123462;1102;104232;-82
2023/02/25 04:31:34;;;;;;;43.53;21.37;;;;;;;4.79;78.04;99166.73;123497;1102;104303;-81
2023/02/25 04:34:05;;;;;;;40.87;20.93;;;;;;;4.78;78.43;99172.75;123375;1102;104319;-82
2023/02/25 04:36:37;;;;;;;45.07;20.87;;;;;;;4.76;78.30;99169.22;123538;1105;104402;-81
2023/02/25 04:39:11;;;;;;;45.20;21.07;;;;;;;4.75;78.00;99176.11;123433;1102;104319;-82
2023/02/25 04:41:42;;;;;;;;;;;;;;;4.76;78.76;99169.22;123553;1102;104245;-82
2023/02/25 04:44:13;;;;;;;42.40;21.20;;;;;;;4.75;78.48;99165.72;123581;1102;104296;-82
2023/02/25 04:46:50;;;;;;;46.10;21.15;;;;;;;4.76;78.99;99169.22;123499;1102;104284;-82
2023/02/25 04:49:22;;;;;;;40.65;20.80;;;;;;;4.78;79.30;99158.03;123339;1102;104338;-82
2023/02/25 04:51:54;;;;;;;42.37;21.43;;;;;;;4.81;79.05;99157.27;123489;1102;104332;-82
2023/02/25 04:54:25;;;;;;;40.50;20.37;;;;;;;4.84;79.07;99149.59;123516;1102;104284;-81
2023/02/25 04:56:56;;;;;;;38.80;18.67;;;;;;;4.85;79.03;99141.84;123537;1102;104719;-82
2023/02/25 04:59:27;;;;;;;42.63;21.53;;;;;;;4.89;78.48;99140.23;123571;1102;104713;-82
2023/02/25 05:01:58;;;;;;;40.10;20.53;;;;;;;4.90;79.29;99128.15;123483;1102;104361;-80
2023/02/25 05:04:29;;;;;;;40.70;21.20;;;;;;;4.90;79.25;99128.15;123465;1102;104281;-81
2023/02/25 05:07:02;;;;;;;38.83;20.30;;;;;;;4.92;78.61;99127.35;123440;1102;104310;-82
2023/02/25 05:09:34;;;;;;;40.65;21.25;;;;;;;4.92;78.83;99135.16;123384;1102;104325;-81
2023/02/25 05:12:06;;;;;;;42.37;20.47;;;;;;;4.93;78.71;99136.06;123441;1102;104187;-81
2023/02/25 05:14:38;;;;;;;43.17;21.10;;;;;;;4.93;78.80;99141.25;123541;1105;104363;-81
2023/02/25 05:17:11;;;;;;;39.47;19.93;;;;;;;4.91;79.02;99129.89;123589;1102;104370;-82
2023/02/25 05:19:43;;;;;;;37.80;19.33;;;;;;;4.91;79.17;99143.80;123449;1102;104383;-82
2023/02/25 05:22:14;;;;;;;40.70;20.40;;;;;;;4.91;78.85;99146.40;123457;1102;104258;-82
2023/02/25 05:24:45;;;;;;;43.33;19.67;;;;;;;4.92;79.13;99137.75;123504;1102;104281;-81
2023/02/25 05:27:16;;;;;;;38.90;20.30;;;;;;;4.93;79.35;99131.73;123369;1102;104307;-82
2023/02/25 05:29:50;;;;;;;40.50;20.33;;;;;;;4.95;79.02;99123.98;123559;1102;104257;-81
2023/02/25 05:32:21;;;;;;;38.48;19.37;;;;;;;4.96;78.58;99126.64;123527;1102;104360;-83
2023/02/25 05:34:53;;;;;;;39.30;19.87;;;;;;;4.99;79.48;99116.36;123546;1101;104280;-81
2023/02/25 05:37:27;;;;;;;42.45;20.80;;;;;;;5.02;79.82;99100.87;123394;1102;104248;-81
2023/02/25 05:39:58;;;;;;;38.07;18.93;;;;;;;5.06;78.88;99082.78;123495;1102;104283;-81
2023/02/25 05:42:29;;;;;;;37.17;19.27;;;;;;;5.11;79.21;99102.02;123455;1102;104280;-81
2023/02/25 05:45:01;;;;;;;37.23;19.67;;;;;;;5.14;79.24;99100.42;123458;1102;104271;-81
2023/02/25 05:47:32;;;;;;;37.57;19.80;;;;;;;5.18;79.27;99110.08;123509;1102;104281;-81
2023/02/25 05:50:03;;;;;;;40.10;20.77;;;;;;;5.23;78.93;99105.04;123626;1102;104329;-81
2023/02/25 05:52:34;;;;;;;38.27;20.00;;;;;;;5.27;79.12;99106.92;123337;1102;104398;-81
2023/02/25 05:55:08;;;;;;;41.80;21.57;;;;;;;5.31;79.55;99115.71;123499;1102;104370;-82
2023/02/25 05:57:39;;;;;;;42.58;20.12;;;;;;;5.38;79.27;99117.70;123561;1102;104469;-81
2023/02/25 06:00:13;;;;;;;42.50;20.30;;;;;;;5.44;79.16;99110.11;123518;1102;104197;-81
2023/02/25 06:02:44;;;;;;;41.90;20.33;;;;;;;5.51;79.40;99111.19;123655;1105;104236;-82
2023/02/25 06:05:16;;;;;;;38.33;20.37;;;;;;;5.58;79.35;99107.97;123485;1102;104229;-81
2023/02/25 06:07:47;;;;;;;42.97;20.83;;;;;;;5.66;79.01;99101.30;123721;1102;104259;-81
2023/02/25 06:10:19;;;;;;;42.80;21.10;;;;;;;5.73;79.16;99097.16;123744;1102;104256;-80
2023/02/25 06:12:52;;;;;;;40.03;20.05;;;;;;;5.82;78.73;99080.97;124006;1102;104267;-81
2023/02/25 06:15:23;;;;;;;35.63;20.03;;;;;;;5.89;79.05;99072.50;123877;1101;104268;-81
2023/02/25 06:17:55;;;;;;;38.87;20.07;;;;;;;5.98;78.96;99064.14;123690;1103;104283;-81
2023/02/25 06:20:26;;;;;;;37.77;19.37;;;;;;;6.07;79.01;99069.63;123620;1102;104434;-81
2023/02/25 06:22:58;;;;;;;42.83;19.77;;;;;;;6.16;78.93;99067.30;123601;1102;104296;-81
2023/02/25 06:25:29;;;;;;;43.55;20.45;;;;;;;6.24;78.85;99070.14;123613;1105;104255;-81
2023/02/25 06:28:01;;;;;;;39.57;19.67;;;;;;;6.31;78.74;99069.50;123722;1105;104303;-81
2023/02/25 06:30:33;;;;;;;37.47;20.73;;;;;;;6.40;78.75;99067.13;123928;1106;104377;-81
2023/02/25 06:33:04;;;;;;;42.77;20.00;;;;;;;6.51;78.68;99074.39;123616;1102;104169;-80
2023/02/25 06:35:36;;;;;;;40.20;21.53;;;;;;;6.60;78.73;99079.88;123568;1105;104281;-80
2023/02/25 06:38:07;;;;;;;39.23;21.03;;;;;;;6.71;78.66;99068.02;123815;1102;104338;-80
2023/02/25 06:40:41;;;;;;;42.53;21.37;;;;;;;6.78;78.69;99069.97;123840;1105;104315;-81
2023/02/25 06:43:12;;;;;;;39.37;20.17;;;;;;;6.93;78.90;99071.23;124047;1102;104309;-82
2023/02/25 06:45:43;;;;;;;44.30;22.37;;;;;;;7.05;78.96;99063.73;123885;1102;104261;-81
2023/02/25 06:48:14;;;;;;;39.23;21.30;;;;;;;7.18;78.75;99050.19;123813;1102;104188;-80
2023/02/25 06:50:45;;;;;;;36.90;19.45;;;;;;;7.31;78.53;99047.89;123709;1106;104272;-81
2023/02/25 06:53:17;;;;;;;40.13;19.73;;;;;;;7.48;79.04;99032.63;123658;1102;104281;-80
2023/02/25 06:55:48;;;;;;;36.77;16.97;;;;;;;7.63;78.25;99027.78;123553;1102;104318;-82
2023/02/25 06:58:19;;;;;;;35.93;17.23;;;;;;;7.78;78.07;99027.27;123465;1102;104290;-81
2023/02/25 07:00:50;;;;;;;35.50;17.17;;;;;;;7.88;78.23;99017.91;123555;1102;104335;-81
2023/02/25 07:03:22;;;;;;;37.40;17.47;;;;;;;8.01;78.57;99019.06;123439;1102;104233;-80
2023/02/25 07:05:53;;;;;;;36.37;17.80;;;;;;;8.12;77.74;99009.75;123471;1102;104663;-81
2023/02/25 07:08:24;;;;;;;33.77;16.77;;;;;;;8.23;77.70;99008.24;123383;1102;104381;-81
2023/02/25 07:10:55;;;;;;;31.33;15.77;;;;;;;8.34;77.77;99002.37;123486;1102;104386;-80
2023/02/25 07:13:26;;;;;;;37.45;17.65;;;;;;;8.48;78.05;99000.95;123565;1102;104274;-80
2023/02/25 07:15:57;;;;;;;32.73;16.20;;;;;;;8.60;78.13;99001.19;123629;1102;104386;-81
2023/02/25 07:18:28;;;;;;;30.10;15.83;;;;;;;8.71;77.59;98992.65;123526;1102;104265;-80
2023/02/25 07:21:00;;;;;;;32.90;17.30;;;;;;;8.82;77.52;98996.38;123420;1102;104402;-80
2023/02/25 07:23:31;;;;;;;31.75;16.05;;;;;;;8.93;76.94;99000.06;123479;1105;104393;-81
2023/02/25 07:26:06;;;;;;;31.40;15.77;;;;;;;9.07;77.05;98991.55;123445;1102;112032;-81
2023/02/25 07:28:38;;;;;;;32.10;15.73;;;;;;;9.21;77.24;98997.03;123563;1102;104322;-81
2023/02/25 07:31:14;;;;;;;30.00;15.30;;;;;;;9.32;77.19;98998.98;123628;1102;104344;-81
2023/02/25 07:33:45;;;;;;;33.03;16.70;;;;;;;9.43;77.22;98996.55;123493;1102;104204;-81
2023/02/25 07:36:18;;;;;;;32.77;16.40;;;;;;;9.52;75.77;98987.94;123335;1101;104281;-80
2023/02/25 07:38:49;;;;;;;31.03;15.33;;;;;;;9.58;74.58;98969.70;123687;1102;104184;-80
2023/02/25 07:41:21;;;;;;;30.65;15.20;;;;;;;9.66;75.86;98977.67;123328;1105;104320;-80
2023/02/25 07:43:53;;;;;;;32.70;15.80;;;;;;;9.73;75.17;98968.19;123431;1102;104338;-80
2023/02/25 07:46:24;;;;;;;38.10;16.60;;;;;;;9.80;75.77;98963.06;123478;1102;104390;-81
2023/02/25 07:48:56;;;;;;;30.43;14.43;;;;;;;9.91;75.21;98960.59;123578;1105;104725;-81
2023/02/25 07:51:27;;;;;;;27.77;13.90;;;;;;;10.04;75.24;98959.88;123384;1102;104277;-80
2023/02/25 07:53:59;;;;;;;31.77;15.60;;;;;;;10.14;74.63;98954.76;123472;1104;104259;-80
2023/02/25 07:56:31;;;;;;;28.93;14.13;;;;;;;10.21;74.67;98964.47;123595;1105;104373;-81
2023/02/25 07:59:03;;;;;;;29.00;14.37;;;;;;;10.31;74.59;98966.33;123541;1105;104316;-81
2023/02/25 08:01:38;;;;;;;30.17;15.53;;;;;;;10.39;73.34;98946.38;123334;1102;104354;-80
2023/02/25 08:04:10;;;;;;;31.17;15.07;;;;;;;10.48;73.56;98936.84;123393;1102;104252;-80
2023/02/25 08:06:42;;;;;;;31.33;14.83;;;;;;;10.59;72.91;98927.34;123425;1103;104354;-81
2023/02/25 08:09:14;;;;;;;31.70;15.20;;;;;;;10.75;73.71;98921.40;123604;1102;104311;-80
2023/02/25 08:11:46;;;;;;;28.83;13.93;;;;;;;10.88;73.28;98908.39;123466;1105;104347;-80
2023/02/25 08:14:18;;;;;;;28.70;14.40;;;;;;;10.99;72.63;98897.98;123490;1102;104249;-80
2023/02/25 08:16:49;;;;;;;31.73;14.77;;;;;;;11.12;71.84;98905.95;123499;1105;104278;-81
2023/02/25 08:19:20;;;;;;;29.60;14.05;;;;;;;11.27;72.75;98909.58;123585;1102;102501;-81
2023/02/25 08:21:52;;;;;;;30.60;14.53;;;;;;;11.38;72.27;98894.77;123525;1102;104386;-79
2023/02/25 08:24:25;;;;;;;27.60;13.77;;;;;;;11.47;72.61;98893.97;123716;1102;104229;-80
2023/02/25 08:26:56;;;;;;;28.83;13.97;;;;;;;11.56;72.13;98893.13;123551;1102;104184;-81
2023/02/25 08:29:27;;;;;;;28.17;14.13;;;;;;;11.58;71.00;98908.03;123390;1102;104281;-80
2023/02/25 08:31:59;;;;;;;30.73;15.10;;;;;;;11.69;71.20;98898.45;123521;1102;104437;-81
2023/02/25 08:34:30;;;;;;;29.77;15.37;;;;;;;11.75;71.01;98889.74;123848;1102;104312;-80
2023/02/25 08:37:01;;;;;;;33.00;15.20;;;;;;;11.82;70.88;98881.00;123531;1102;104274;-81
2023/02/25 08:39:34;;;;;;;29.40;15.47;;;;;;;11.89;69.54;98868.78;123819;1103;104259;-81
2023/02/25 08:42:06;;;;;;;32.28;14.85;;;;;;;11.96;68.84;98860.06;123534;1105;104252;-81
2023/02/25 08:44:38;;;;;;;36.53;16.70;;;;;;;12.01;68.83;98854.83;123714;1105;104278;-81
2023/02/25 08:47:09;;;;;;;33.83;15.40;;;;;;;12.07;68.89;98860.11;123875;1105;104306;-81
2023/02/25 08:49:40;;;;;;;30.77;15.23;;;;;;;12.12;68.23;98844.34;123550;1105;105772;-80
2023/02/25 08:52:12;;;;;;;32.77;15.57;;;;;;;12.18;68.39;98841.73;123666;1102;104339;-81
2023/02/25 08:54:43;;;;;;;28.73;14.43;;;;;;;12.26;68.10;98836.50;123807;1102;104395;-81
2023/02/25 08:57:15;;;;;;;38.50;16.17;;;;;;;12.35;68.53;98844.41;123744;1102;104203;-81
2023/02/25 08:59:46;;;;;;;28.93;14.90;;;;;;;12.40;68.13;98840.92;123772;1102;104360;-81
2023/02/25 09:02:17;;;;;;;31.70;15.80;;;;;;;12.44;67.77;98836.53;123819;1102;104258;-82
2023/02/25 09:04:48;;;;;;;31.03;14.33;;;;;;;12.51;67.93;98825.16;123895;1102;104288;-81
2023/02/25 09:07:20;;;;;;;31.40;15.50;;;;;;;12.53;66.40;98828.66;123943;1102;104296;-80
2023/02/25 09:09:52;;;;;;;30.23;15.57;;;;;;;12.58;67.24;98819.00;123966;1102;104175;-82
2023/02/25 09:12:23;;;;;;;31.70;14.33;;;;;;;12.63;66.02;98824.27;123725;1102;104329;-81
2023/02/25 09:14:54;;;;;;;28.73;14.10;;;;;;;12.68;66.21;98811.11;123802;1102;104357;-81
2023/02/25 09:17:25;;;;;;;29.93;14.63;;;;;;;12.72;66.09;98812.87;123801;1105;104293;-82
2023/02/25 09:20:00;;;;;;;30.50;15.73;;;;;;;12.71;66.43;98816.38;124542;1102;104354;-81
2023/02/25 09:22:32;;;;;;;28.93;14.90;;;;;;;12.74;66.16;98811.98;123794;1102;104373;-80
2023/02/25 09:25:04;;;;;;;31.83;15.93;;;;;;;12.74;66.42;98800.59;124234;1102;104254;-80
2023/02/25 09:27:35;;;;;;;33.43;15.90;;;;;;;12.72;65.87;98797.95;124069;1102;104181;-80
2023/02/25 09:30:09;;;;;;;33.80;16.07;;;;;;;12.68;65.65;98792.69;123801;1102;104229;-80
2023/02/25 09:32:40;;;;;;;30.35;16.48;;;;;;;12.66;65.72;98781.30;124007;1103;104275;-81
2023/02/25 09:35:11;;;;;;;32.80;16.67;;;;;;;12.59;64.31;98778.67;124054;1102;104274;-81
2023/02/25 09:37:43;;;;;;;34.33;14.70;;;;;;;12.63;64.11;98770.78;123853;1102;104347;-82
2023/02/25 09:40:21;;;;;;;36.17;17.30;;;;;;;12.65;65.68;98776.91;123648;1102;104335;-80
2023/02/25 09:43:04;;;;;;;30.50;16.40;;;;;;;12.71;64.75;98769.01;123693;1102;104211;-81
2023/02/25 09:45:36;;;;;;;31.97;15.73;;;;;;;12.73;64.56;98767.24;123664;1102;104280;-81
2023/02/25 09:48:15;;;;;;;35.20;16.95;;;;;;;12.75;65.23;98760.24;123610;1102;104204;-80
2023/02/25 09:50:52;;;;;;;32.97;16.37;;;;;;;12.79;64.51;98750.58;123569;1102;104259;-80
2023/02/25 09:53:27;;;;;;;34.13;16.27;;;;;;;12.76;64.44;98751.45;124076;1103;104338;-81
2023/02/25 09:56:00;;;;;;;34.07;16.77;;;;;;;12.82;64.35;98747.94;123468;1105;104278;-80
2023/02/25 09:58:37;;;;;;;33.20;17.17;;;;;;;12.91;64.28;98745.30;123572;1102;104348;-80
2023/02/25 10:01:15;;;;;;;34.37;17.13;;;;;;;12.99;64.00;98735.62;123686;1102;104347;-80
2023/02/25 10:03:56;;;;;;;34.67;16.67;;;;;;;13.05;63.52;98732.11;123851;1102;104398;-80
2023/02/25 10:06:34;;;;;;;33.50;16.57;;;;;;;13.10;64.38;98731.23;123600;1102;104274;-81
2023/02/25 10:09:16;;;;;;;35.20;15.97;;;;;;;13.11;63.52;98721.56;123918;1102;104227;-81
2023/02/25 10:11:57;;;;;;;32.77;15.60;;;;;;;13.09;64.37;98740.00;123687;1102;104197;-80
2023/02/25 10:14:47;;;;;;;34.63;15.77;;;;;;;13.04;63.91;98715.44;123921;1102;104246;-80
2023/02/25 10:17:32;;;;;;;33.13;15.60;;;;;;;12.97;63.61;98703.16;123810;1102;104178;-81
2023/02/25 10:20:38;;;;;;;29.23;13.83;;;;;;;12.90;63.32;98704.05;123730;1102;104261;-80
2023/02/25 10:23:22;;;;;;;30.80;15.10;;;;;;;12.84;63.08;98694.43;124061;1105;104214;-80
2023/02/25 10:26:01;;;;;;;30.27;15.43;;;;;;;12.88;63.76;98695.29;123974;1105;104361;-80
2023/02/25 10:28:40;;;;;;;29.60;14.13;;;;;;;12.99;63.43;98697.89;123791;1103;104354;-80
2023/02/25 10:31:17;;;;;;;30.97;14.87;;;;;;;13.10;64.04;98698.73;123844;1105;104249;-80
2023/02/25 10:33:52;;;;;;;31.57;13.43;;;;;;;13.17;62.99;98692.57;124192;1105;104335;-80
2023/02/25 10:36:30;;;;;;;32.43;14.63;;;;;;;13.24;63.06;98688.14;124085;1105;104284;-79
2023/02/25 10:39:01;;;;;;;29.37;14.03;;;;;;;13.32;63.40;98675.81;123962;1102;104313;-80
2023/02/25 10:41:32;;;;;;;31.57;13.57;;;;;;;13.37;63.51;98679.35;123988;1102;104280;-80
2023/02/25 10:44:03;;;;;;;33.27;14.27;;;;;;;13.41;63.21;98675.80;124104;1102;104198;-81
2023/02/25 10:46:40;;;;;;;30.70;13.40;;;;;;;13.41;63.50;98669.66;124105;1102;104254;-81
2023/02/25 10:49:19;;;;;;;29.50;13.97;;;;;;;13.36;62.88;98653.88;124122;1102;105892;-81
2023/02/25 10:52:01;;;;;;;28.83;12.70;;;;;;;13.31;62.26;98648.60;124086;1102;104277;-80
2023/02/25 10:54:35;;;;;;;29.30;13.13;;;;;;;13.26;62.40;98637.23;124021;1102;104284;-79
2023/02/25 10:57:16;;;;;;;28.80;12.68;;;;;;;13.24;62.08;98641.60;124082;1102;104204;-80
2023/02/25 10:59:58;;;;;;;29.87;14.00;;;;;;;13.22;62.02;98635.48;123780;1105;104336;-80
2023/02/25 11:02:37;;;;;;;30.40;14.17;;;;;;;13.24;62.03;98617.90;124040;1103;104178;-81
2023/02/25 11:05:31;;;;;;;31.23;14.07;;;;;;;13.19;61.60;98593.36;124369;1103;104226;-79
2023/02/25 11:08:05;;;;;;;32.05;13.35;;;;;;;13.31;61.79;98614.36;124306;1102;104287;-81
2023/02/25 11:10:36;;;;;;;36.53;14.33;;;;;;;13.42;61.67;98618.73;124334;1102;118398;-80
2023/02/25 11:13:28;;;;;;;28.67;12.23;;;;;;;13.50;61.59;98614.28;124408;1105;104407;-81
2023/02/25 11:16:03;;;;;;;31.80;13.70;;;;;;;13.60;61.00;98600.18;124662;1102;104277;-80
2023/02/25 11:18:37;;;;;;;34.33;14.63;;;;;;;13.75;61.65;98595.67;124733;1102;104060;-80
2023/02/25 11:21:12;;;;;;;31.27;13.15;;;;;;;13.89;60.81;98595.56;125109;1105;102097;-81
2023/02/25 11:23:48;;;;;;;29.23;12.60;;;;;;;14.03;61.36;98591.91;124641;1102;104708;-80
2023/02/25 11:26:30;;;;;;;27.67;12.53;;;;;;;14.18;61.40;98595.31;124782;1102;104399;-80
2023/02/25 11:29:06;;;;;;;29.73;12.83;;;;;;;14.30;60.66;98596.94;125071;1102;104229;-81
2023/02/25 11:31:40;;;;;;;30.40;13.20;;;;;;;14.39;60.40;98600.35;124785;1102;104165;-80
2023/02/25 11:34:15;;;;;;;;;;;;;;;14.42;58.70;98586.27;124769;1102;104277;-81
2023/02/25 11:36:46;;;;;;;27.10;11.47;;;;;;;14.49;59.98;98579.16;124891;1105;104267;-81
2023/02/25 11:39:21;;;;;;;29.90;13.20;;;;;;;14.56;59.39;98557.09;125036;1102;104351;-80